Terminal Aerodrome Forecast
Issued by NWS

Home | Current Version | Previous Version | Text Only | Print | Product List | Glossary On
Versions: 1 2 3 4 5 6 7 8 9 10 11 12 13 14 15 16 17 18 19 20 21 22 23 24 25 26 27 28 29 30 31 32 33 34 35 36 37 38 39 40 41 42 43 44 45 46 47 48 49 50
000
FTUS45 KGJT 180129 AAC
TAFTEX
TAF AMD
KTEX 180129Z 1801/1824 21005KT 3SM -SN BKN020 OVC030
      TEMPO 1801/1804 3/4SM -SN VV008
     FM180600 VRB03KT P6SM VCSH SCT030 OVC060
     FM181800 30007KT P6SM VCSH SCT040 OVC060=

USA.gov is the U.S. government's official web portal to all federal, state and local government web resources and services.